Accueil
METAR-TAF:

METAR-TAF

Aéroports :

Aéroport de Milan Malpensa

Milan, Italie

latitude: 45-37N, longitude: 008-44E, altitude: 234 m

Observation

Le bulletin a été fait il y a 13 minutes, à 01:20 UTC
Vent 5 kt de nord
Température 2°C
Humidité 80%
Pression 1018 hPa
Visibilité 10 km ou plus
Nuages épars à une hauteur de 8000 ft

METAR: LIMC 170120Z 01005KT 9999 SCT080 02/M01 Q1018 NOSIG

Heure: 03:33 (01:33 UTC)

Prévision

Le bulletin a été fait il y a 2 heures et 33 minutes, à 23:00 UTC
Prévision valable du 17 à 00 UTC au 18 à 06 UTC
Vent 5 kt de direction variable
Visibilité 10 km ou plus
Nuages fragmentés à une hauteur de 5000 ft
Evoluant progressivement
du 17 à 08 UTC au 17 à 10 UTC
Vent 10 kt de sud/sud-est
Evoluant progressivement
du 17 à 16 UTC au 17 à 18 UTC
Vent 5 kt de direction variable

TAF: LIMC 162300Z 1700/1806 VRB05KT 9999 BKN050 BECMG 1708/1710 15010KT BECMG 1716/1718 VRB05KT

Observations et prévisions météorologiques de plus de 4000 aéroports (messages METAR et TAF).

Les stations disponibles sont représentées par des disques jaunes et rouges sur la carte.

Passer la souris dessus pour voir le nom de la station.

Cliquer dessus pour voir les observations et prévisions météorologiques.

Pour changer de carte: cliquez sur les boutons verts avec une croix noire pour zoomer, sur le bouton vert avec un tiret pour effectuer un zoom arrière, ou sur les flèches vertes pour les cartes adjacentes.


METAR-TAF: